sensor_id;sensor_type;location;lat;lon;timestamp;P1;durP1;ratioP1;P2;durP2;ratioP2
26696;SDS011;14312;52.614;13.496;2023-06-05T00:01:01;1.33;;;1.20;;
26696;SDS011;14312;52.614;13.496;2023-06-05T00:03:47;1.30;;;1.20;;
26696;SDS011;14312;52.614;13.496;2023-06-05T00:06:33;1.58;;;1.40;;
26696;SDS011;14312;52.614;13.496;2023-06-05T00:09:19;1.50;;;1.40;;
26696;SDS011;14312;52.614;13.496;2023-06-05T00:12:05;1.33;;;1.23;;
26696;SDS011;14312;52.614;13.496;2023-06-05T00:14:52;2.13;;;1.20;;
26696;SDS011;14312;52.614;13.496;2023-06-05T00:17:38;1.38;;;1.27;;
26696;SDS011;14312;52.614;13.496;2023-06-05T00:20:24;1.20;;;1.10;;
26696;SDS011;14312;52.614;13.496;2023-06-05T00:23:10;1.45;;;1.20;;
26696;SDS011;14312;52.614;13.496;2023-06-05T00:25:59;1.77;;;1.10;;
26696;SDS011;14312;52.614;13.496;2023-06-05T00:28:45;1.10;;;1.00;;
26696;SDS011;14312;52.614;13.496;2023-06-05T00:31:32;0.90;;;0.90;;
26696;SDS011;14312;52.614;13.496;2023-06-05T00:34:19;1.05;;;0.90;;
26696;SDS011;14312;52.614;13.496;2023-06-05T00:37:05;0.90;;;0.90;;
26696;SDS011;14312;52.614;13.496;2023-06-05T00:39:52;1.00;;;0.90;;
26696;SDS011;14312;52.614;13.496;2023-06-05T00:42:38;0.85;;;0.85;;
26696;SDS011;14312;52.614;13.496;2023-06-05T00:45:24;0.98;;;0.88;;
26696;SDS011;14312;52.614;13.496;2023-06-05T00:48:10;1.20;;;0.90;;
26696;SDS011;14312;52.614;13.496;2023-06-05T00:50:56;0.82;;;0.80;;
26696;SDS011;14312;52.614;13.496;2023-06-05T00:53:44;0.80;;;0.80;;
26696;SDS011;14312;52.614;13.496;2023-06-05T00:56:32;1.85;;;0.88;;
26696;SDS011;14312;52.614;13.496;2023-06-05T00:59:21;1.20;;;1.10;;
26696;SDS011;14312;52.614;13.496;2023-06-05T01:02:07;0.60;;;0.60;;
26696;SDS011;14312;52.614;13.496;2023-06-05T01:04:53;1.20;;;1.00;;
26696;SDS011;14312;52.614;13.496;2023-06-05T01:07:42;0.82;;;0.80;;
26696;SDS011;14312;52.614;13.496;2023-06-05T01:10:30;1.10;;;1.00;;
26696;SDS011;14312;52.614;13.496;2023-06-05T01:13:26;0.90;;;0.90;;
26696;SDS011;14312;52.614;13.496;2023-06-05T01:16:17;1.02;;;0.95;;
26696;SDS011;14312;52.614;13.496;2023-06-05T01:19:04;0.80;;;0.80;;
26696;SDS011;14312;52.614;13.496;2023-06-05T01:21:51;0.80;;;0.80;;
26696;SDS011;14312;52.614;13.496;2023-06-05T01:24:37;0.90;;;0.90;;
26696;SDS011;14312;52.614;13.496;2023-06-05T01:27:35;1.00;;;1.00;;
26696;SDS011;14312;52.614;13.496;2023-06-05T01:33:59;0.70;;;0.70;;
26696;SDS011;14312;52.614;13.496;2023-06-05T01:36:47;0.80;;;0.80;;
26696;SDS011;14312;52.614;13.496;2023-06-05T01:39:34;1.05;;;1.00;;
26696;SDS011;14312;52.614;13.496;2023-06-05T01:42:21;0.80;;;0.80;;
26696;SDS011;14312;52.614;13.496;2023-06-05T01:45:09;0.82;;;0.82;;
26696;SDS011;14312;52.614;13.496;2023-06-05T01:47:57;0.82;;;0.82;;
26696;SDS011;14312;52.614;13.496;2023-06-05T01:50:43;0.82;;;0.80;;
26696;SDS011;14312;52.614;13.496;2023-06-05T01:53:29;0.82;;;0.73;;
26696;SDS011;14312;52.614;13.496;2023-06-05T01:56:16;1.42;;;0.80;;
26696;SDS011;14312;52.614;13.496;2023-06-05T01:59:04;0.80;;;0.80;;
26696;SDS011;14312;52.614;13.496;2023-06-05T02:01:52;0.80;;;0.80;;
26696;SDS011;14312;52.614;13.496;2023-06-05T02:04:38;0.70;;;0.70;;
26696;SDS011;14312;52.614;13.496;2023-06-05T02:07:24;0.85;;;0.85;;
26696;SDS011;14312;52.614;13.496;2023-06-05T02:10:10;1.10;;;0.80;;
26696;SDS011;14312;52.614;13.496;2023-06-05T02:12:56;1.00;;;0.90;;
26696;SDS011;14312;52.614;13.496;2023-06-05T02:15:42;0.80;;;0.80;;
26696;SDS011;14312;52.614;13.496;2023-06-05T02:18:30;0.93;;;0.93;;
26696;SDS011;14312;52.614;13.496;2023-06-05T02:21:16;0.95;;;0.80;;
26696;SDS011;14312;52.614;13.496;2023-06-05T02:24:02;0.95;;;0.77;;
26696;SDS011;14312;52.614;13.496;2023-06-05T02:26:48;1.80;;;0.98;;
26696;SDS011;14312;52.614;13.496;2023-06-05T02:29:34;1.05;;;0.80;;
26696;SDS011;14312;52.614;13.496;2023-06-05T02:32:22;0.98;;;0.80;;
26696;SDS011;14312;52.614;13.496;2023-06-05T02:35:11;0.88;;;0.88;;
26696;SDS011;14312;52.614;13.496;2023-06-05T02:37:58;1.00;;;0.90;;
26696;SDS011;14312;52.614;13.496;2023-06-05T02:40:44;0.90;;;0.90;;
26696;SDS011;14312;52.614;13.496;2023-06-05T02:43:30;1.00;;;0.80;;
26696;SDS011;14312;52.614;13.496;2023-06-05T02:46:16;0.82;;;0.80;;
26696;SDS011;14312;52.614;13.496;2023-06-05T02:49:02;1.15;;;0.90;;
26696;SDS011;14312;52.614;13.496;2023-06-05T02:51:48;1.02;;;0.93;;
26696;SDS011;14312;52.614;13.496;2023-06-05T02:54:34;1.10;;;1.00;;
26696;SDS011;14312;52.614;13.496;2023-06-05T02:57:20;1.20;;;1.10;;
26696;SDS011;14312;52.614;13.496;2023-06-05T03:00:10;1.00;;;0.90;;
26696;SDS011;14312;52.614;13.496;2023-06-05T03:03:02;0.90;;;0.90;;
26696;SDS011;14312;52.614;13.496;2023-06-05T03:05:49;0.80;;;0.80;;
26696;SDS011;14312;52.614;13.496;2023-06-05T03:08:35;0.90;;;0.90;;
26696;SDS011;14312;52.614;13.496;2023-06-05T03:11:22;1.13;;;1.00;;
26696;SDS011;14312;52.614;13.496;2023-06-05T03:14:10;1.55;;;0.90;;
26696;SDS011;14312;52.614;13.496;2023-06-05T03:16:56;1.13;;;0.98;;
26696;SDS011;14312;52.614;13.496;2023-06-05T03:19:44;3.42;;;0.82;;
26696;SDS011;14312;52.614;13.496;2023-06-05T03:22:30;0.70;;;0.70;;
26696;SDS011;14312;52.614;13.496;2023-06-05T03:25:17;1.00;;;0.90;;
26696;SDS011;14312;52.614;13.496;2023-06-05T03:28:03;1.10;;;1.00;;
26696;SDS011;14312;52.614;13.496;2023-06-05T03:30:49;1.35;;;1.10;;
26696;SDS011;14312;52.614;13.496;2023-06-05T03:33:35;1.17;;;0.98;;
26696;SDS011;14312;52.614;13.496;2023-06-05T03:36:21;1.17;;;1.08;;
26696;SDS011;14312;52.614;13.496;2023-06-05T03:39:08;1.10;;;0.90;;
26696;SDS011;14312;52.614;13.496;2023-06-05T03:41:54;1.25;;;1.08;;
26696;SDS011;14312;52.614;13.496;2023-06-05T03:44:40;1.77;;;0.90;;
26696;SDS011;14312;52.614;13.496;2023-06-05T03:47:26;0.80;;;0.80;;
26696;SDS011;14312;52.614;13.496;2023-06-05T03:50:14;1.00;;;0.82;;
26696;SDS011;14312;52.614;13.496;2023-06-05T03:53:03;0.75;;;0.75;;
26696;SDS011;14312;52.614;13.496;2023-06-05T03:55:50;0.95;;;0.82;;
26696;SDS011;14312;52.614;13.496;2023-06-05T03:58:38;1.13;;;1.02;;
26696;SDS011;14312;52.614;13.496;2023-06-05T04:01:25;1.10;;;1.00;;
26696;SDS011;14312;52.614;13.496;2023-06-05T04:04:11;0.98;;;0.90;;
26696;SDS011;14312;52.614;13.496;2023-06-05T04:06:57;1.00;;;0.90;;
26696;SDS011;14312;52.614;13.496;2023-06-05T04:09:43;0.80;;;0.80;;
26696;SDS011;14312;52.614;13.496;2023-06-05T04:12:29;1.88;;;0.90;;
26696;SDS011;14312;52.614;13.496;2023-06-05T04:15:15;0.90;;;0.90;;
26696;SDS011;14312;52.614;13.496;2023-06-05T04:18:01;0.80;;;0.80;;
26696;SDS011;14312;52.614;13.496;2023-06-05T04:20:47;1.20;;;1.10;;
26696;SDS011;14312;52.614;13.496;2023-06-05T04:23:33;1.98;;;1.10;;
26696;SDS011;14312;52.614;13.496;2023-06-05T04:26:19;1.10;;;1.00;;
26696;SDS011;14312;52.614;13.496;2023-06-05T04:29:06;1.08;;;0.90;;
26696;SDS011;14312;52.614;13.496;2023-06-05T04:31:58;1.20;;;1.10;;
26696;SDS011;14312;52.614;13.496;2023-06-05T04:34:45;1.65;;;0.90;;
26696;SDS011;14312;52.614;13.496;2023-06-05T04:37:32;1.13;;;1.02;;
26696;SDS011;14312;52.614;13.496;2023-06-05T04:40:18;1.13;;;0.90;;
26696;SDS011;14312;52.614;13.496;2023-06-05T04:43:07;3.05;;;1.20;;
26696;SDS011;14312;52.614;13.496;2023-06-05T04:45:54;1.38;;;1.25;;
26696;SDS011;14312;52.614;13.496;2023-06-05T04:48:40;1.80;;;1.20;;
26696;SDS011;14312;52.614;13.496;2023-06-05T04:51:26;2.38;;;1.00;;
26696;SDS011;14312;52.614;13.496;2023-06-05T04:54:12;1.10;;;1.00;;
26696;SDS011;14312;52.614;13.496;2023-06-05T04:56:58;1.30;;;1.20;;
26696;SDS011;14312;52.614;13.496;2023-06-05T04:59:46;1.77;;;1.10;;
26696;SDS011;14312;52.614;13.496;2023-06-05T05:02:32;1.15;;;1.00;;
26696;SDS011;14312;52.614;13.496;2023-06-05T05:05:18;0.90;;;0.90;;
26696;SDS011;14312;52.614;13.496;2023-06-05T05:08:05;1.65;;;1.20;;
26696;SDS011;14312;52.614;13.496;2023-06-05T05:10:51;1.10;;;0.90;;
26696;SDS011;14312;52.614;13.496;2023-06-05T05:13:37;1.10;;;1.00;;
26696;SDS011;14312;52.614;13.496;2023-06-05T05:16:23;1.58;;;1.15;;
26696;SDS011;14312;52.614;13.496;2023-06-05T05:19:10;1.67;;;1.10;;
26696;SDS011;14312;52.614;13.496;2023-06-05T05:21:57;1.00;;;0.90;;
26696;SDS011;14312;52.614;13.496;2023-06-05T05:24:43;1.25;;;1.15;;
26696;SDS011;14312;52.614;13.496;2023-06-05T05:27:29;0.90;;;0.90;;
26696;SDS011;14312;52.614;13.496;2023-06-05T05:30:15;1.10;;;1.00;;
26696;SDS011;14312;52.614;13.496;2023-06-05T05:33:01;0.93;;;0.90;;
26696;SDS011;14312;52.614;13.496;2023-06-05T05:35:47;2.65;;;0.90;;
26696;SDS011;14312;52.614;13.496;2023-06-05T05:38:33;0.93;;;0.93;;
26696;SDS011;14312;52.614;13.496;2023-06-05T05:41:20;1.10;;;1.00;;
26696;SDS011;14312;52.614;13.496;2023-06-05T05:44:06;1.30;;;1.20;;
26696;SDS011;14312;52.614;13.496;2023-06-05T05:46:52;1.10;;;1.00;;
26696;SDS011;14312;52.614;13.496;2023-06-05T05:49:38;1.25;;;1.10;;
26696;SDS011;14312;52.614;13.496;2023-06-05T05:52:24;0.80;;;0.75;;
26696;SDS011;14312;52.614;13.496;2023-06-05T05:55:10;0.93;;;0.93;;
26696;SDS011;14312;52.614;13.496;2023-06-05T05:57:56;1.42;;;1.00;;
26696;SDS011;14312;52.614;13.496;2023-06-05T06:00:42;1.23;;;1.10;;
26696;SDS011;14312;52.614;13.496;2023-06-05T06:03:28;2.05;;;1.15;;
26696;SDS011;14312;52.614;13.496;2023-06-05T06:06:15;0.90;;;0.90;;
26696;SDS011;14312;52.614;13.496;2023-06-05T06:09:01;1.23;;;1.10;;
26696;SDS011;14312;52.614;13.496;2023-06-05T06:11:47;0.80;;;0.80;;
26696;SDS011;14312;52.614;13.496;2023-06-05T06:14:34;1.00;;;1.00;;
26696;SDS011;14312;52.614;13.496;2023-06-05T06:17:20;1.60;;;1.00;;
26696;SDS011;14312;52.614;13.496;2023-06-05T06:20:06;1.60;;;1.17;;
26696;SDS011;14312;52.614;13.496;2023-06-05T06:22:54;1.92;;;1.20;;
26696;SDS011;14312;52.614;13.496;2023-06-05T06:25:40;2.25;;;1.00;;
26696;SDS011;14312;52.614;13.496;2023-06-05T06:28:26;1.20;;;1.10;;
26696;SDS011;14312;52.614;13.496;2023-06-05T06:31:12;1.10;;;1.00;;
26696;SDS011;14312;52.614;13.496;2023-06-05T06:33:59;1.13;;;1.05;;
26696;SDS011;14312;52.614;13.496;2023-06-05T06:36:45;1.80;;;1.05;;
26696;SDS011;14312;52.614;13.496;2023-06-05T06:39:32;2.53;;;2.33;;
26696;SDS011;14312;52.614;13.496;2023-06-05T06:42:18;1.70;;;1.60;;
26696;SDS011;14312;52.614;13.496;2023-06-05T06:45:04;2.50;;;1.30;;
26696;SDS011;14312;52.614;13.496;2023-06-05T06:47:50;2.20;;;1.17;;
26696;SDS011;14312;52.614;13.496;2023-06-05T06:50:36;1.55;;;1.10;;
26696;SDS011;14312;52.614;13.496;2023-06-05T06:53:22;0.98;;;0.98;;
26696;SDS011;14312;52.614;13.496;2023-06-05T06:56:08;1.33;;;1.23;;
26696;SDS011;14312;52.614;13.496;2023-06-05T06:58:55;1.30;;;1.20;;
26696;SDS011;14312;52.614;13.496;2023-06-05T07:01:45;1.90;;;1.30;;
26696;SDS011;14312;52.614;13.496;2023-06-05T07:04:32;1.98;;;1.13;;
26696;SDS011;14312;52.614;13.496;2023-06-05T07:07:18;1.25;;;1.13;;
26696;SDS011;14312;52.614;13.496;2023-06-05T07:10:06;1.48;;;1.10;;
26696;SDS011;14312;52.614;13.496;2023-06-05T07:12:53;1.35;;;0.95;;
26696;SDS011;14312;52.614;13.496;2023-06-05T07:15:39;6.53;;;1.40;;
26696;SDS011;14312;52.614;13.496;2023-06-05T07:18:25;1.23;;;1.13;;
26696;SDS011;14312;52.614;13.496;2023-06-05T07:21:12;2.63;;;1.23;;
26696;SDS011;14312;52.614;13.496;2023-06-05T07:23:58;1.35;;;1.25;;
26696;SDS011;14312;52.614;13.496;2023-06-05T07:26:44;1.17;;;1.08;;
26696;SDS011;14312;52.614;13.496;2023-06-05T07:29:30;1.08;;;0.98;;
26696;SDS011;14312;52.614;13.496;2023-06-05T07:32:17;1.17;;;1.08;;
26696;SDS011;14312;52.614;13.496;2023-06-05T07:35:03;1.98;;;1.02;;
26696;SDS011;14312;52.614;13.496;2023-06-05T07:37:50;1.25;;;1.15;;
26696;SDS011;14312;52.614;13.496;2023-06-05T07:40:36;0.90;;;0.80;;
26696;SDS011;14312;52.614;13.496;2023-06-05T07:43:21;2.28;;;1.05;;
26696;SDS011;14312;52.614;13.496;2023-06-05T07:46:08;1.63;;;1.13;;
26696;SDS011;14312;52.614;13.496;2023-06-05T07:48:54;1.10;;;1.02;;
26696;SDS011;14312;52.614;13.496;2023-06-05T07:51:40;1.40;;;1.10;;
26696;SDS011;14312;52.614;13.496;2023-06-05T07:54:27;1.42;;;1.33;;
26696;SDS011;14312;52.614;13.496;2023-06-05T07:57:13;1.23;;;1.13;;
26696;SDS011;14312;52.614;13.496;2023-06-05T07:59:59;1.17;;;1.08;;
26696;SDS011;14312;52.614;13.496;2023-06-05T08:02:44;1.30;;;1.05;;
26696;SDS011;14312;52.614;13.496;2023-06-05T08:05:30;1.27;;;1.17;;
26696;SDS011;14312;52.614;13.496;2023-06-05T08:08:17;1.45;;;1.20;;
26696;SDS011;14312;52.614;13.496;2023-06-05T08:11:03;0.85;;;0.85;;
26696;SDS011;14312;52.614;13.496;2023-06-05T08:13:49;1.00;;;1.00;;
26696;SDS011;14312;52.614;13.496;2023-06-05T08:16:35;1.20;;;1.10;;
26696;SDS011;14312;52.614;13.496;2023-06-05T08:19:21;0.98;;;0.98;;
26696;SDS011;14312;52.614;13.496;2023-06-05T08:22:08;1.00;;;1.00;;
26696;SDS011;14312;52.614;13.496;2023-06-05T08:24:54;1.30;;;1.20;;
26696;SDS011;14312;52.614;13.496;2023-06-05T08:27:41;2.10;;;0.93;;
26696;SDS011;14312;52.614;13.496;2023-06-05T08:30:27;0.90;;;0.90;;
26696;SDS011;14312;52.614;13.496;2023-06-05T08:33:13;1.27;;;1.08;;
26696;SDS011;14312;52.614;13.496;2023-06-05T08:35:59;1.05;;;1.02;;
26696;SDS011;14312;52.614;13.496;2023-06-05T08:38:46;1.80;;;1.13;;
26696;SDS011;14312;52.614;13.496;2023-06-05T08:41:32;1.02;;;1.00;;
26696;SDS011;14312;52.614;13.496;2023-06-05T08:44:21;1.02;;;0.93;;
26696;SDS011;14312;52.614;13.496;2023-06-05T08:47:07;1.75;;;1.27;;
26696;SDS011;14312;52.614;13.496;2023-06-05T08:49:54;1.20;;;1.10;;
26696;SDS011;14312;52.614;13.496;2023-06-05T08:52:41;1.05;;;0.98;;
26696;SDS011;14312;52.614;13.496;2023-06-05T08:55:28;1.67;;;1.05;;
26696;SDS011;14312;52.614;13.496;2023-06-05T08:58:15;1.13;;;1.02;;
26696;SDS011;14312;52.614;13.496;2023-06-05T09:01:01;1.05;;;0.93;;
26696;SDS011;14312;52.614;13.496;2023-06-05T09:03:47;1.15;;;1.05;;
26696;SDS011;14312;52.614;13.496;2023-06-05T09:06:34;0.90;;;0.90;;
26696;SDS011;14312;52.614;13.496;2023-06-05T09:09:19;1.10;;;1.00;;
26696;SDS011;14312;52.614;13.496;2023-06-05T09:12:06;1.30;;;1.10;;
26696;SDS011;14312;52.614;13.496;2023-06-05T09:14:54;0.98;;;0.98;;
26696;SDS011;14312;52.614;13.496;2023-06-05T09:17:40;1.67;;;0.90;;
26696;SDS011;14312;52.614;13.496;2023-06-05T09:20:26;2.25;;;1.15;;
26696;SDS011;14312;52.614;13.496;2023-06-05T09:23:27;2.40;;;1.02;;
26696;SDS011;14312;52.614;13.496;2023-06-05T09:26:14;1.80;;;1.40;;
26696;SDS011;14312;52.614;13.496;2023-06-05T09:29:01;2.33;;;1.20;;
26696;SDS011;14312;52.614;13.496;2023-06-05T09:31:48;1.30;;;1.20;;
26696;SDS011;14312;52.614;13.496;2023-06-05T09:34:36;1.40;;;1.30;;
26696;SDS011;14312;52.614;13.496;2023-06-05T09:37:31;1.40;;;1.30;;
26696;SDS011;14312;52.614;13.496;2023-06-05T09:40:27;1.30;;;1.20;;
26696;SDS011;14312;52.614;13.496;2023-06-05T09:43:22;1.23;;;1.13;;
26696;SDS011;14312;52.614;13.496;2023-06-05T09:46:14;0.90;;;0.90;;
26696;SDS011;14312;52.614;13.496;2023-06-05T09:49:01;1.15;;;1.05;;
26696;SDS011;14312;52.614;13.496;2023-06-05T09:51:47;0.77;;;0.77;;
26696;SDS011;14312;52.614;13.496;2023-06-05T09:54:34;1.05;;;0.98;;
26696;SDS011;14312;52.614;13.496;2023-06-05T09:57:23;1.30;;;1.20;;
26696;SDS011;14312;52.614;13.496;2023-06-05T10:00:12;1.00;;;0.90;;
26696;SDS011;14312;52.614;13.496;2023-06-05T10:02:58;1.35;;;1.20;;
26696;SDS011;14312;52.614;13.496;2023-06-05T10:05:46;1.38;;;0.90;;
26696;SDS011;14312;52.614;13.496;2023-06-05T10:08:33;1.60;;;1.20;;
26696;SDS011;14312;52.614;13.496;2023-06-05T10:11:19;1.13;;;1.00;;
26696;SDS011;14312;52.614;13.496;2023-06-05T10:14:09;1.50;;;1.40;;
26696;SDS011;14312;52.614;13.496;2023-06-05T10:16:55;1.30;;;1.20;;
26696;SDS011;14312;52.614;13.496;2023-06-05T10:19:43;0.90;;;0.90;;
26696;SDS011;14312;52.614;13.496;2023-06-05T10:22:32;2.30;;;1.02;;
26696;SDS011;14312;52.614;13.496;2023-06-05T10:25:20;1.30;;;0.93;;
26696;SDS011;14312;52.614;13.496;2023-06-05T10:31:19;1.00;;;1.00;;
26696;SDS011;14312;52.614;13.496;2023-06-05T10:40:24;1.10;;;1.10;;
26696;SDS011;14312;52.614;13.496;2023-06-05T10:49:18;2.05;;;1.25;;
26696;SDS011;14312;52.614;13.496;2023-06-05T10:52:07;1.30;;;1.20;;
26696;SDS011;14312;52.614;13.496;2023-06-05T10:55:23;1.85;;;1.33;;
26696;SDS011;14312;52.614;13.496;2023-06-05T10:58:10;1.15;;;1.05;;
26696;SDS011;14312;52.614;13.496;2023-06-05T11:01:15;1.30;;;1.20;;
26696;SDS011;14312;52.614;13.496;2023-06-05T11:04:01;1.40;;;1.20;;
26696;SDS011;14312;52.614;13.496;2023-06-05T11:07:32;1.20;;;1.10;;
26696;SDS011;14312;52.614;13.496;2023-06-05T11:10:16;1.55;;;1.30;;
26696;SDS011;14312;52.614;13.496;2023-06-05T11:13:06;1.33;;;1.17;;
26696;SDS011;14312;52.614;13.496;2023-06-05T11:15:52;2.72;;;1.20;;
26696;SDS011;14312;52.614;13.496;2023-06-05T11:18:42;1.33;;;1.23;;
26696;SDS011;14312;52.614;13.496;2023-06-05T11:28:03;1.98;;;1.77;;
26696;SDS011;14312;52.614;13.496;2023-06-05T11:30:51;2.15;;;1.85;;
26696;SDS011;14312;52.614;13.496;2023-06-05T11:33:37;1.60;;;1.50;;
26696;SDS011;14312;52.614;13.496;2023-06-05T11:36:23;1.48;;;1.38;;
26696;SDS011;14312;52.614;13.496;2023-06-05T11:39:10;1.42;;;1.33;;
26696;SDS011;14312;52.614;13.496;2023-06-05T11:41:56;1.67;;;1.20;;
26696;SDS011;14312;52.614;13.496;2023-06-05T11:44:42;1.50;;;1.40;;
26696;SDS011;14312;52.614;13.496;2023-06-05T11:47:28;1.35;;;1.20;;
26696;SDS011;14312;52.614;13.496;2023-06-05T11:50:15;1.35;;;1.25;;
26696;SDS011;14312;52.614;13.496;2023-06-05T11:53:11;1.48;;;1.38;;
26696;SDS011;14312;52.614;13.496;2023-06-05T11:55:57;2.22;;;1.55;;
26696;SDS011;14312;52.614;13.496;2023-06-05T11:58:49;1.67;;;1.58;;
26696;SDS011;14312;52.614;13.496;2023-06-05T12:01:35;1.20;;;1.10;;
26696;SDS011;14312;52.614;13.496;2023-06-05T12:04:22;1.45;;;1.35;;
26696;SDS011;14312;52.614;13.496;2023-06-05T12:07:08;1.27;;;1.20;;
26696;SDS011;14312;52.614;13.496;2023-06-05T12:09:54;1.55;;;1.45;;
26696;SDS011;14312;52.614;13.496;2023-06-05T12:12:50;1.48;;;1.38;;
26696;SDS011;14312;52.614;13.496;2023-06-05T12:15:37;1.40;;;1.30;;
26696;SDS011;14312;52.614;13.496;2023-06-05T12:18:32;1.55;;;1.45;;
26696;SDS011;14312;52.614;13.496;2023-06-05T12:21:19;1.88;;;1.70;;
26696;SDS011;14312;52.614;13.496;2023-06-05T12:24:06;1.67;;;1.58;;
26696;SDS011;14312;52.614;13.496;2023-06-05T12:29:51;1.65;;;1.50;;
26696;SDS011;14312;52.614;13.496;2023-06-05T12:32:39;1.55;;;1.45;;
26696;SDS011;14312;52.614;13.496;2023-06-05T12:35:26;1.30;;;1.20;;
26696;SDS011;14312;52.614;13.496;2023-06-05T12:38:13;1.58;;;1.48;;
26696;SDS011;14312;52.614;13.496;2023-06-05T12:40:59;2.05;;;1.50;;
26696;SDS011;14312;52.614;13.496;2023-06-05T12:43:46;1.38;;;1.27;;
26696;SDS011;14312;52.614;13.496;2023-06-05T12:46:44;1.70;;;1.50;;
26696;SDS011;14312;52.614;13.496;2023-06-05T12:49:30;1.65;;;1.55;;
26696;SDS011;14312;52.614;13.496;2023-06-05T12:52:16;1.50;;;1.40;;
26696;SDS011;14312;52.614;13.496;2023-06-05T12:55:02;1.80;;;1.70;;
26696;SDS011;14312;52.614;13.496;2023-06-05T12:57:50;2.00;;;1.90;;
26696;SDS011;14312;52.614;13.496;2023-06-05T13:00:36;1.60;;;1.50;;
26696;SDS011;14312;52.614;13.496;2023-06-05T13:03:22;1.60;;;1.50;;
26696;SDS011;14312;52.614;13.496;2023-06-05T13:06:08;2.75;;;1.60;;
26696;SDS011;14312;52.614;13.496;2023-06-05T13:08:54;1.90;;;1.50;;
26696;SDS011;14312;52.614;13.496;2023-06-05T13:11:40;1.63;;;1.52;;
26696;SDS011;14312;52.614;13.496;2023-06-05T13:14:26;1.50;;;1.40;;
26696;SDS011;14312;52.614;13.496;2023-06-05T13:17:12;1.52;;;1.42;;
26696;SDS011;14312;52.614;13.496;2023-06-05T13:19:59;2.65;;;2.00;;
26696;SDS011;14312;52.614;13.496;2023-06-05T13:22:45;1.92;;;1.65;;
26696;SDS011;14312;52.614;13.496;2023-06-05T13:25:31;1.52;;;1.42;;
26696;SDS011;14312;52.614;13.496;2023-06-05T13:28:17;1.42;;;1.30;;
26696;SDS011;14312;52.614;13.496;2023-06-05T13:31:03;1.50;;;1.40;;
26696;SDS011;14312;52.614;13.496;2023-06-05T13:33:51;1.50;;;1.40;;
26696;SDS011;14312;52.614;13.496;2023-06-05T13:36:37;1.52;;;1.42;;
26696;SDS011;14312;52.614;13.496;2023-06-05T13:39:24;1.60;;;1.50;;
26696;SDS011;14312;52.614;13.496;2023-06-05T13:42:09;1.58;;;1.48;;
26696;SDS011;14312;52.614;13.496;2023-06-05T13:44:57;1.42;;;1.33;;
26696;SDS011;14312;52.614;13.496;2023-06-05T13:47:43;1.50;;;1.40;;
26696;SDS011;14312;52.614;13.496;2023-06-05T13:50:29;1.70;;;1.60;;
26696;SDS011;14312;52.614;13.496;2023-06-05T13:53:15;1.85;;;1.73;;
26696;SDS011;14312;52.614;13.496;2023-06-05T13:56:02;1.60;;;1.50;;
26696;SDS011;14312;52.614;13.496;2023-06-05T13:58:49;1.95;;;1.55;;
26696;SDS011;14312;52.614;13.496;2023-06-05T14:01:35;2.47;;;1.60;;
26696;SDS011;14312;52.614;13.496;2023-06-05T14:04:21;3.47;;;1.60;;
26696;SDS011;14312;52.614;13.496;2023-06-05T14:07:07;1.50;;;1.40;;
26696;SDS011;14312;52.614;13.496;2023-06-05T14:09:53;2.05;;;1.55;;
26696;SDS011;14312;52.614;13.496;2023-06-05T14:12:39;1.70;;;1.50;;
26696;SDS011;14312;52.614;13.496;2023-06-05T14:15:25;1.77;;;1.67;;
26696;SDS011;14312;52.614;13.496;2023-06-05T14:18:11;1.90;;;1.65;;
26696;SDS011;14312;52.614;13.496;2023-06-05T14:20:59;1.40;;;1.30;;
26696;SDS011;14312;52.614;13.496;2023-06-05T14:23:45;1.90;;;1.63;;
26696;SDS011;14312;52.614;13.496;2023-06-05T14:26:30;1.70;;;1.60;;
26696;SDS011;14312;52.614;13.496;2023-06-05T14:29:17;2.38;;;1.60;;
26696;SDS011;14312;52.614;13.496;2023-06-05T14:32:03;1.70;;;1.60;;
26696;SDS011;14312;52.614;13.496;2023-06-05T14:34:49;1.88;;;1.55;;
26696;SDS011;14312;52.614;13.496;2023-06-05T14:37:35;1.80;;;1.70;;
26696;SDS011;14312;52.614;13.496;2023-06-05T14:40:21;1.83;;;1.73;;
26696;SDS011;14312;52.614;13.496;2023-06-05T14:43:07;1.75;;;1.65;;
26696;SDS011;14312;52.614;13.496;2023-06-05T14:45:53;1.55;;;1.45;;
26696;SDS011;14312;52.614;13.496;2023-06-05T14:48:39;1.40;;;1.30;;
26696;SDS011;14312;52.614;13.496;2023-06-05T14:51:27;1.60;;;1.50;;
26696;SDS011;14312;52.614;13.496;2023-06-05T14:54:13;3.55;;;1.52;;
26696;SDS011;14312;52.614;13.496;2023-06-05T14:56:59;1.45;;;1.35;;
26696;SDS011;14312;52.614;13.496;2023-06-05T14:59:45;2.10;;;1.60;;
26696;SDS011;14312;52.614;13.496;2023-06-05T15:02:31;2.00;;;1.80;;
26696;SDS011;14312;52.614;13.496;2023-06-05T15:05:17;1.67;;;1.58;;
26696;SDS011;14312;52.614;13.496;2023-06-05T15:08:03;1.77;;;1.67;;
26696;SDS011;14312;52.614;13.496;2023-06-05T15:10:51;1.70;;;1.60;;
26696;SDS011;14312;52.614;13.496;2023-06-05T15:13:36;1.70;;;1.60;;
26696;SDS011;14312;52.614;13.496;2023-06-05T15:16:22;1.83;;;1.73;;
26696;SDS011;14312;52.614;13.496;2023-06-05T15:19:09;1.90;;;1.70;;
26696;SDS011;14312;52.614;13.496;2023-06-05T15:21:55;1.77;;;1.67;;
26696;SDS011;14312;52.614;13.496;2023-06-05T15:24:41;1.90;;;1.80;;
26696;SDS011;14312;52.614;13.496;2023-06-05T15:27:29;2.00;;;1.80;;
26696;SDS011;14312;52.614;13.496;2023-06-05T15:30:15;1.70;;;1.60;;
26696;SDS011;14312;52.614;13.496;2023-06-05T15:33:01;2.35;;;1.70;;
26696;SDS011;14312;52.614;13.496;2023-06-05T15:35:48;1.48;;;1.38;;
26696;SDS011;14312;52.614;13.496;2023-06-05T15:38:35;1.77;;;1.67;;
26696;SDS011;14312;52.614;13.496;2023-06-05T15:41:22;1.80;;;1.70;;
26696;SDS011;14312;52.614;13.496;2023-06-05T15:44:08;1.35;;;1.25;;
26696;SDS011;14312;52.614;13.496;2023-06-05T15:46:55;1.50;;;1.40;;
26696;SDS011;14312;52.614;13.496;2023-06-05T15:49:42;1.48;;;1.38;;
26696;SDS011;14312;52.614;13.496;2023-06-05T15:52:29;1.50;;;1.40;;
26696;SDS011;14312;52.614;13.496;2023-06-05T15:55:16;1.40;;;1.30;;
26696;SDS011;14312;52.614;13.496;2023-06-05T15:58:02;1.70;;;1.60;;
26696;SDS011;14312;52.614;13.496;2023-06-05T16:00:49;1.80;;;1.70;;
26696;SDS011;14312;52.614;13.496;2023-06-05T16:03:35;1.50;;;1.40;;
26696;SDS011;14312;52.614;13.496;2023-06-05T16:06:21;1.40;;;1.30;;
26696;SDS011;14312;52.614;13.496;2023-06-05T16:09:07;1.58;;;1.48;;
26696;SDS011;14312;52.614;13.496;2023-06-05T16:11:55;1.45;;;1.35;;
26696;SDS011;14312;52.614;13.496;2023-06-05T16:14:40;2.35;;;2.15;;
26696;SDS011;14312;52.614;13.496;2023-06-05T16:17:26;2.90;;;2.70;;
26696;SDS011;14312;52.614;13.496;2023-06-05T16:20:13;2.20;;;2.10;;
26696;SDS011;14312;52.614;13.496;2023-06-05T16:22:59;2.08;;;1.98;;
26696;SDS011;14312;52.614;13.496;2023-06-05T16:25:44;1.60;;;1.50;;
26696;SDS011;14312;52.614;13.496;2023-06-05T16:28:30;2.08;;;1.88;;
26696;SDS011;14312;52.614;13.496;2023-06-05T16:31:16;2.42;;;1.95;;
26696;SDS011;14312;52.614;13.496;2023-06-05T16:34:08;1.85;;;1.58;;
26696;SDS011;14312;52.614;13.496;2023-06-05T16:36:55;1.70;;;1.60;;
26696;SDS011;14312;52.614;13.496;2023-06-05T16:39:41;1.73;;;1.50;;
26696;SDS011;14312;52.614;13.496;2023-06-05T16:42:27;1.80;;;1.50;;
26696;SDS011;14312;52.614;13.496;2023-06-05T16:45:13;2.10;;;1.48;;
26696;SDS011;14312;52.614;13.496;2023-06-05T16:47:59;1.90;;;1.42;;
26696;SDS011;14312;52.614;13.496;2023-06-05T16:50:46;1.80;;;1.50;;
26696;SDS011;14312;52.614;13.496;2023-06-05T16:53:35;1.60;;;1.50;;
26696;SDS011;14312;52.614;13.496;2023-06-05T16:56:21;1.55;;;1.40;;
26696;SDS011;14312;52.614;13.496;2023-06-05T16:59:11;1.65;;;1.52;;